Time;durP1;ratioP1;P1;durP2;ratioP2;P2;SDS_P1;SDS_P2;PMS_P1;PMS_P2;Temp;Humidity;BMP_temperature;BMP_pressure;BME280_temperature;BME280_humidity;BME280_pressure;Samples;Min_cycle;Max_cycle;Signal;HPM_P1;HPM_P2
2023/10/15 00:02:13;;;;;;;13.90;2.10;;;;;;;13.33;56.50;100869.34;5042810;27;98827;-78
2023/10/15 00:04:40;;;;;;;15.88;1.65;;;;;;;13.44;56.17;100866.22;5046372;27;96792;-78
2023/10/15 00:07:06;;;;;;;11.82;2.72;;;;;;;13.47;55.94;100866.94;5048368;27;96750;-79
2023/10/15 00:09:33;;;;;;;7.95;1.65;;;;;;;13.12;56.40;100860.56;5048468;27;99517;-79
2023/10/15 00:11:59;;;;;;;15.88;2.05;;;;;;;12.92;57.38;100864.97;5044692;27;100088;-78
2023/10/15 00:14:27;;;;;;;17.45;2.15;;;;;;;13.16;56.81;100864.81;5050865;27;96873;-78
2023/10/15 00:16:53;;;;;;;8.10;1.67;;;;;;;13.10;56.86;100867.69;5047231;27;97534;-79
2023/10/15 00:19:20;;;;;;;12.15;1.73;;;;;;;13.10;56.86;100866.81;5051657;27;98264;-78
2023/10/15 00:21:47;;;;;;;10.65;1.60;;;;;;;12.62;58.43;100851.22;5046503;27;98920;-79
2023/10/15 00:24:14;;;;;;;9.60;1.73;;;;;;;12.90;58.06;100857.09;5045731;27;96866;-79
2023/10/15 00:26:41;;;;;;;6.57;1.77;;;;;;;12.97;57.65;100855.91;5044775;27;96874;-78
2023/10/15 00:29:08;;;;;;;14.10;1.73;;;;;;;12.93;58.05;100872.00;5047233;27;99356;-79
2023/10/15 00:31:37;;;;;;;10.70;1.60;;;;;;;12.91;58.43;100865.91;5049014;27;100884;-78
2023/10/15 00:34:12;;;;;;;13.55;1.50;;;;;;;12.48;58.76;100864.19;5050419;27;96839;-78
2023/10/15 00:36:38;;;;;;;17.38;1.92;;;;;;;12.72;58.84;100864.03;5049214;27;96887;-77
2023/10/15 00:39:09;;;;;;;14.23;2.13;;;;;;;12.77;58.18;100864.72;5045810;27;96841;-77
2023/10/15 00:41:36;;;;;;;9.98;2.10;;;;;;;12.94;57.67;100869.28;5050471;27;98813;-77
2023/10/15 00:44:09;;;;;;;10.82;1.63;;;;;;;12.83;57.87;100866.22;5048842;27;96907;-77
2023/10/15 00:46:37;;;;;;;11.95;1.40;;;;;;;12.75;58.31;100855.09;5048819;27;96868;-77
2023/10/15 00:49:13;;;;;;;9.25;1.15;;;;;;;12.55;58.60;100857.72;5050151;27;99026;-77
2023/10/15 00:51:41;;;;;;;10.80;1.50;;;;;;;12.78;58.44;100869.09;5051216;27;99100;-77
2023/10/15 00:54:11;;;;;;;14.77;2.38;;;;;;;12.44;59.42;100867.91;5044467;27;97962;-77
2023/10/15 00:56:39;;;;;;;22.35;2.58;;;;;;;12.47;59.56;100873.09;5043751;27;97088;-77
2023/10/15 00:59:13;;;;;;;22.67;2.03;;;;;;;12.67;58.82;100879.25;5047122;27;101728;-77
2023/10/15 01:01:48;;;;;;;16.10;1.80;;;;;;;12.77;58.41;100875.31;5043749;27;100730;-76
2023/10/15 01:04:15;;;;;;;11.93;1.67;;;;;;;12.69;58.60;100879.22;5050318;27;96866;-76
2023/10/15 01:06:44;;;;;;;14.23;1.92;;;;;;;12.31;60.04;100871.06;5049390;27;96849;-76
2023/10/15 01:09:18;;;;;;;12.13;1.55;;;;;;;12.29;60.06;100885.28;5052548;27;99021;-76
2023/10/15 01:11:55;;;;;;;9.30;1.30;;;;;;;12.40;60.00;100875.13;5047645;27;98903;-77
2023/10/15 01:14:28;;;;;;;18.25;2.13;;;;;;;12.66;58.99;100876.69;5054269;27;96848;-77
2023/10/15 01:16:56;;;;;;;12.05;1.85;;;;;;;12.54;58.84;100869.22;5054613;27;96811;-76
2023/10/15 01:19:32;;;;;;;10.48;1.95;;;;;;;12.58;58.97;100874.38;5050474;27;99419;-80
2023/10/15 01:22:02;;;;;;;16.40;2.30;;;;;;;12.66;58.61;100863.44;5046719;27;102638;-79
2023/10/15 01:24:32;;;;;;;14.70;2.13;;;;;;;12.61;58.61;100865.41;5053808;27;97233;-78
2023/10/15 01:27:05;;;;;;;11.00;1.63;;;;;;;12.70;57.74;100865.91;5051934;27;96907;-78
2023/10/15 01:29:34;;;;;;;12.77;1.67;;;;;;;12.83;57.77;100863.56;5053399;27;102032;-79
2023/10/15 01:32:03;;;;;;;15.57;1.50;;;;;;;12.71;57.79;100874.72;5053573;27;98956;-78
2023/10/15 01:34:31;;;;;;;13.25;1.73;;;;;;;12.66;57.97;100871.41;5050210;27;96792;-78
2023/10/15 01:36:58;;;;;;;13.38;1.70;;;;;;;12.54;58.56;100874.53;5047746;27;96918;-78
2023/10/15 01:39:37;;;;;;;9.40;1.80;;;;;;;12.56;58.24;100870.03;5048086;27;99355;-78
2023/10/15 01:42:06;;;;;;;18.33;2.42;;;;;;;12.53;58.50;100870.19;5045281;27;98996;-78
2023/10/15 01:44:33;;;;;;;13.18;1.88;;;;;;;12.56;58.34;100870.03;5047100;27;96869;-77
2023/10/15 01:47:09;;;;;;;11.65;1.98;;;;;;;12.49;58.39;100879.16;5051445;27;96959;-77
2023/10/15 01:49:35;;;;;;;10.98;1.35;;;;;;;12.48;58.81;100877.44;5048024;27;99102;-79
2023/10/15 01:52:09;;;;;;;7.18;1.88;;;;;;;12.54;58.58;100877.19;5052404;27;97786;-78
2023/10/15 01:54:36;;;;;;;14.35;1.60;;;;;;;12.28;58.81;100881.75;5047829;27;96992;-79
2023/10/15 01:57:06;;;;;;;12.50;1.70;;;;;;;12.39;59.21;100878.69;5052125;27;98762;-79
2023/10/15 01:59:41;;;;;;;9.95;1.60;;;;;;;12.44;58.86;100882.03;5046052;27;99338;-79
2023/10/15 02:02:13;;;;;;;11.77;2.38;;;;;;;12.55;58.04;100894.81;5047841;27;98760;-79
2023/10/15 02:04:44;;;;;;;12.00;2.53;;;;;;;12.32;59.01;100885.16;5052350;27;96935;-79
2023/10/15 02:07:13;;;;;;;13.25;1.90;;;;;;;12.46;59.12;100884.63;5051133;27;96866;-78
2023/10/15 02:09:43;;;;;;;12.43;2.00;;;;;;;12.40;58.73;100893.69;5051556;27;98173;-78
2023/10/15 02:12:10;;;;;;;11.38;1.90;;;;;;;12.49;59.08;100892.41;5050957;27;99264;-77
2023/10/15 02:14:41;;;;;;;10.68;2.15;;;;;;;12.68;58.41;100885.44;5051599;27;96827;-78
2023/10/15 02:17:13;;;;;;;12.38;1.70;;;;;;;12.61;57.86;100894.56;5044015;27;97176;-78
2023/10/15 02:19:41;;;;;;;16.55;1.85;;;;;;;12.43;58.48;100888.25;5049015;27;99404;-79
2023/10/15 02:22:12;;;;;;;16.45;2.20;;;;;;;12.37;58.60;100889.34;5051736;27;101578;-79
2023/10/15 02:24:38;;;;;;;7.65;1.60;;;;;;;12.62;57.57;100898.94;5048133;27;96789;-79
2023/10/15 02:27:06;;;;;;;14.02;1.88;;;;;;;12.84;56.90;100889.19;5051341;27;98948;-80
2023/10/15 02:29:36;;;;;;;13.63;2.03;;;;;;;12.89;56.38;100889.84;5050188;27;99420;-79
2023/10/15 02:32:13;;;;;;;16.30;1.90;;;;;;;12.45;57.66;100894.34;5051156;27;98868;-78
2023/10/15 02:34:40;;;;;;;9.93;2.08;;;;;;;12.46;57.91;100905.81;5046448;27;97180;-78
2023/10/15 02:37:11;;;;;;;17.05;3.35;;;;;;;12.85;57.16;100896.22;5045529;27;97447;-79
2023/10/15 02:39:43;;;;;;;7.93;1.73;;;;;;;12.35;58.02;100899.16;5046633;27;98871;-78
2023/10/15 02:42:10;;;;;;;10.57;1.88;;;;;;;12.57;57.75;100893.84;5050103;27;99944;-79
2023/10/15 02:44:38;;;;;;;14.68;2.60;;;;;;;12.64;57.60;100897.97;5048351;27;98222;-79
2023/10/15 02:47:19;;;;;;;11.50;1.52;;;;;;;12.77;57.24;100896.53;5046802;27;97720;-78
2023/10/15 02:49:53;;;;;;;10.75;1.52;;;;;;;12.78;57.19;100897.38;5051399;27;98068;-79
2023/10/15 02:52:20;;;;;;;16.98;1.83;;;;;;;12.70;57.38;100896.84;5050617;27;99167;-78
2023/10/15 02:54:46;;;;;;;13.10;1.50;;;;;;;12.61;57.91;100890.13;5051851;27;96852;-78
2023/10/15 02:57:15;;;;;;;15.05;1.73;;;;;;;12.64;57.71;100899.75;5051679;27;97545;-78
2023/10/15 02:59:50;;;;;;;11.30;1.83;;;;;;;12.46;58.34;100903.16;5052602;27;98487;-78
2023/10/15 03:02:19;;;;;;;14.00;2.92;;;;;;;12.30;58.86;100897.59;5051481;27;101859;-78
2023/10/15 03:04:51;;;;;;;11.75;1.95;;;;;;;12.41;58.86;100902.47;5052363;27;97293;-78
2023/10/15 03:07:26;;;;;;;11.13;2.03;;;;;;;12.32;58.69;100904.59;5048681;27;96959;-77
2023/10/15 03:09:56;;;;;;;14.68;2.00;;;;;;;12.22;59.32;100902.34;5045999;27;101306;-77
2023/10/15 03:12:23;;;;;;;13.48;1.90;;;;;;;12.08;59.93;100910.00;5046341;27;102090;-77
2023/10/15 03:14:51;;;;;;;13.52;1.60;;;;;;;12.25;59.03;100908.41;5049621;27;96817;-77
2023/10/15 03:17:25;;;;;;;12.35;1.60;;;;;;;12.22;59.25;100912.94;5050590;27;96768;-78
2023/10/15 03:19:54;;;;;;;16.38;2.08;;;;;;;12.00;60.01;100909.44;5046746;27;97435;-77
2023/10/15 03:22:23;;;;;;;12.82;1.33;;;;;;;11.96;59.91;100916.59;5049237;27;98849;-77
2023/10/15 03:24:50;;;;;;;8.60;2.03;;;;;;;12.01;60.71;100919.09;5047996;27;97376;-77
2023/10/15 03:27:22;;;;;;;14.48;1.75;;;;;;;12.27;59.40;100903.88;5041198;27;96868;-78
2023/10/15 03:29:48;;;;;;;16.27;2.05;;;;;;;12.43;58.53;100903.28;5051141;27;100769;-78
2023/10/15 03:32:15;;;;;;;10.98;1.40;;;;;;;11.98;59.61;100914.78;5049830;27;97527;-77
2023/10/15 03:34:47;;;;;;;9.48;1.60;;;;;;;11.88;60.17;100921.34;5046302;27;97131;-77
2023/10/15 03:37:14;;;;;;;15.63;2.03;;;;;;;12.03;59.82;100915.44;5043831;27;96891;-76
2023/10/15 03:42:27;;;;;;;16.88;2.88;;;;;;;12.00;59.76;100917.38;5046008;27;98646;-77
2023/10/15 03:44:59;;;;;;;9.98;1.58;;;;;;;11.98;59.72;100910.34;5048746;27;96787;-79
2023/10/15 03:47:26;;;;;;;9.98;1.70;;;;;;;12.22;58.80;100913.81;5048590;27;97561;-78
2023/10/15 03:49:56;;;;;;;15.80;1.60;;;;;;;12.19;59.09;100902.47;5049506;27;99593;-79
2023/10/15 03:52:23;;;;;;;16.92;3.55;;;;;;;12.03;59.46;100911.94;5047559;27;100125;-79
2023/10/15 03:54:50;;;;;;;16.08;2.50;;;;;;;11.97;59.74;100907.75;5047469;27;96736;-79
2023/10/15 03:57:18;;;;;;;17.52;2.65;;;;;;;11.86;60.05;100910.81;5049301;27;96993;-78
2023/10/15 03:59:51;;;;;;;11.82;1.73;;;;;;;11.78;60.49;100901.44;5050789;27;98986;-78
2023/10/15 04:02:22;;;;;;;9.07;1.58;;;;;;;12.21;59.11;100901.47;5049145;27;99417;-78
2023/10/15 04:04:56;;;;;;;12.00;2.53;;;;;;;11.96;59.55;100911.31;5047754;27;96812;-79
2023/10/15 04:07:25;;;;;;;11.13;2.05;;;;;;;11.97;59.74;100913.03;5049975;27;96926;-79
2023/10/15 04:09:51;;;;;;;11.45;2.00;;;;;;;12.17;59.26;100905.19;5044920;27;101349;-79
2023/10/15 04:12:18;;;;;;;9.13;1.42;;;;;;;12.02;59.13;100908.41;5048218;27;99694;-78
2023/10/15 04:14:45;;;;;;;14.93;1.88;;;;;;;12.12;58.99;100915.09;5051157;27;96743;-78
2023/10/15 04:17:12;;;;;;;11.68;1.52;;;;;;;12.05;59.27;100894.22;5049428;27;97045;-78
2023/10/15 04:19:38;;;;;;;15.52;2.05;;;;;;;11.80;60.18;100902.25;5043807;27;99854;-78
2023/10/15 04:22:13;;;;;;;12.15;1.73;;;;;;;11.94;59.99;100902.59;5049415;27;99832;-78
2023/10/15 04:24:46;;;;;;;12.20;2.10;;;;;;;11.46;60.92;100898.19;5047527;27;97669;-78
2023/10/15 04:27:15;;;;;;;11.35;1.73;;;;;;;11.60;61.05;100881.78;5048035;27;97273;-78
2023/10/15 04:29:48;;;;;;;13.10;1.98;;;;;;;11.52;61.11;100881.19;5050351;27;98873;-77
2023/10/15 04:32:22;;;;;;;13.50;1.88;;;;;;;11.42;61.39;100885.13;5045540;27;99042;-78
2023/10/15 04:34:51;;;;;;;8.25;1.80;;;;;;;11.54;61.16;100888.19;5046667;27;96930;-78
2023/10/15 04:37:20;;;;;;;9.63;1.55;;;;;;;11.41;61.63;100881.59;5047489;27;96974;-78
2023/10/15 04:39:53;;;;;;;17.00;1.58;;;;;;;11.57;61.19;100872.16;5043079;27;99167;-78
2023/10/15 04:42:28;;;;;;;12.75;2.15;;;;;;;11.57;61.07;100871.31;5050611;27;100736;-77
2023/10/15 04:44:54;;;;;;;12.55;2.50;;;;;;;11.59;60.66;100872.97;5048898;27;96777;-77
2023/10/15 04:47:25;;;;;;;15.65;3.08;;;;;;;11.56;60.84;100870.44;5052756;27;99103;-77
2023/10/15 04:49:56;;;;;;;15.43;2.33;;;;;;;11.49;61.29;100873.34;5050497;27;98963;-79
2023/10/15 04:52:23;;;;;;;13.52;1.77;;;;;;;11.48;60.73;100875.19;5052449;27;98914;-77
2023/10/15 04:54:50;;;;;;;14.90;1.90;;;;;;;11.58;60.58;100867.72;5050627;27;96860;-77
2023/10/15 04:57:17;;;;;;;11.82;1.60;;;;;;;11.51;61.18;100876.81;5048626;27;96869;-77
2023/10/15 04:59:43;;;;;;;15.98;1.98;;;;;;;11.73;61.03;100876.88;5052816;27;98261;-76
2023/10/15 05:02:09;;;;;;;9.85;1.40;;;;;;;11.79;60.47;100871.38;5052462;27;98054;-77
2023/10/15 05:04:36;;;;;;;12.90;1.73;;;;;;;11.65;60.44;100889.53;5053905;27;97036;-78
2023/10/15 05:07:02;;;;;;;11.05;2.03;;;;;;;11.75;60.27;100885.69;5050839;27;96980;-77
2023/10/15 05:09:31;;;;;;;16.20;1.52;;;;;;;11.37;61.39;100889.69;5055329;27;102191;-77
2023/10/15 05:11:59;;;;;;;10.63;1.45;;;;;;;11.53;61.65;100888.22;5053248;27;99299;-79
2023/10/15 05:14:25;;;;;;;10.75;2.00;;;;;;;11.49;61.49;100892.75;5048229;27;101229;-79
2023/10/15 05:16:51;;;;;;;18.50;2.72;;;;;;;11.34;62.18;100895.97;5047066;27;96850;-78
2023/10/15 05:19:19;;;;;;;15.00;1.77;;;;;;;11.24;62.19;100894.56;5048025;27;97824;-78
2023/10/15 05:21:46;;;;;;;22.17;2.15;;;;;;;11.33;62.30;100893.38;5041953;27;98744;-78
2023/10/15 05:24:18;;;;;;;16.27;1.83;;;;;;;11.36;62.44;100893.25;5052367;27;96767;-78
2023/10/15 05:26:46;;;;;;;13.35;1.67;;;;;;;11.28;62.72;100895.34;5047629;27;96875;-78
2023/10/15 05:29:15;;;;;;;9.52;1.40;;;;;;;11.22;62.75;100896.44;5049644;27;99669;-76
2023/10/15 05:31:41;;;;;;;9.93;1.52;;;;;;;11.39;62.15;100904.59;5046715;27;99319;-77
2023/10/15 05:34:08;;;;;;;12.13;2.53;;;;;;;11.34;62.58;100916.28;5052445;27;96725;-77
2023/10/15 05:36:35;;;;;;;17.75;1.90;;;;;;;11.19;63.27;100907.09;5052091;27;96815;-77
2023/10/15 05:39:02;;;;;;;13.10;2.25;;;;;;;11.29;62.57;100924.34;5052936;27;100791;-76
2023/10/15 05:41:31;;;;;;;13.02;1.92;;;;;;;11.38;62.21;100913.47;5053836;27;101333;-76
2023/10/15 05:43:57;;;;;;;17.00;1.85;;;;;;;11.37;62.49;100924.94;5052966;27;96789;-77
2023/10/15 05:46:27;;;;;;;10.02;2.92;;;;;;;11.48;61.49;100921.94;5051819;27;96883;-77
2023/10/15 05:48:54;;;;;;;12.98;3.60;;;;;;;11.31;62.02;100919.00;5048608;27;100608;-76
2023/10/15 05:51:21;;;;;;;13.88;2.05;;;;;;;11.36;62.02;100917.94;5053779;27;98999;-76
2023/10/15 05:53:47;;;;;;;13.70;2.03;;;;;;;10.95;63.30;100924.69;5050338;27;97182;-77
2023/10/15 05:56:14;;;;;;;15.60;2.85;;;;;;;11.32;62.50;100924.25;5052389;27;97573;-78
2023/10/15 05:58:40;;;;;;;20.27;1.98;;;;;;;11.19;62.25;100915.03;5047032;27;99399;-77
2023/10/15 06:01:06;;;;;;;16.83;2.85;;;;;;;11.31;62.20;100917.25;5042156;27;98746;-77
2023/10/15 06:03:35;;;;;;;23.40;2.22;;;;;;;11.52;61.48;100907.66;5052257;27;96867;-78
2023/10/15 06:06:02;;;;;;;12.32;2.40;;;;;;;11.35;61.58;100913.59;5053314;27;97147;-78
2023/10/15 06:08:29;;;;;;;12.35;1.70;;;;;;;11.57;61.40;100901.28;5047878;27;100823;-77
2023/10/15 06:10:57;;;;;;;22.05;2.42;;;;;;;11.39;62.11;100909.91;5051649;27;99266;-77
2023/10/15 06:13:23;;;;;;;8.82;1.52;;;;;;;11.32;62.34;100907.53;5049837;27;97152;-78
2023/10/15 06:15:51;;;;;;;10.23;1.45;;;;;;;11.44;62.26;100907.06;5051446;27;97553;-77
2023/10/15 06:18:18;;;;;;;18.30;2.90;;;;;;;11.19;62.65;100912.38;5046964;27;101911;-79
2023/10/15 06:20:48;;;;;;;12.27;1.75;;;;;;;11.32;62.74;100912.81;5052323;27;99287;-78
2023/10/15 06:23:14;;;;;;;13.90;1.50;;;;;;;11.30;62.39;100915.50;5049491;27;98470;-80
2023/10/15 06:25:42;;;;;;;14.73;2.17;;;;;;;11.01;63.62;100910.41;5051926;27;96944;-79
2023/10/15 06:28:13;;;;;;;12.63;2.40;;;;;;;11.23;63.31;100926.34;5051418;27;99635;-82
2023/10/15 06:30:41;;;;;;;13.90;2.03;;;;;;;11.52;62.36;100931.47;5049713;27;96930;-79
2023/10/15 06:33:07;;;;;;;13.52;2.08;;;;;;;11.67;61.19;100923.00;5050798;27;96700;-78
2023/10/15 06:35:34;;;;;;;12.85;1.77;;;;;;;11.86;60.81;100934.66;5046997;27;98476;-78
2023/10/15 06:38:01;;;;;;;16.27;2.45;;;;;;;11.84;60.72;100925.88;5046229;27;99158;-77
2023/10/15 06:40:28;;;;;;;10.32;1.63;;;;;;;11.84;60.64;100928.53;5050248;27;98871;-76
2023/10/15 06:43:00;;;;;;;14.02;1.77;;;;;;;12.08;59.87;100933.84;5048530;27;96756;-77
2023/10/15 06:45:27;;;;;;;12.27;1.77;;;;;;;11.84;60.69;100939.13;5043053;27;97471;-79
2023/10/15 06:47:55;;;;;;;14.00;1.90;;;;;;;11.74;60.97;100939.53;5043339;27;98855;-79
2023/10/15 06:50:22;;;;;;;17.52;2.15;;;;;;;11.83;60.78;100936.53;5048466;27;98887;-79
2023/10/15 06:52:49;;;;;;;10.60;1.55;;;;;;;11.46;61.99;100937.88;5048903;27;96828;-78
2023/10/15 06:55:19;;;;;;;13.50;3.10;;;;;;;11.64;61.71;100946.91;5050494;27;96894;-78
2023/10/15 06:57:46;;;;;;;11.48;1.60;;;;;;;11.48;61.63;100943.97;5048753;27;101579;-78
2023/10/15 07:00:21;;;;;;;15.38;1.92;;;;;;;11.76;61.36;100942.97;5045697;27;101211;-78
2023/10/15 07:02:48;;;;;;;13.35;1.85;;;;;;;12.11;59.82;100946.94;5046701;27;96925;-78
2023/10/15 07:05:16;;;;;;;10.52;2.00;;;;;;;12.03;60.06;100949.88;5049338;27;96888;-78
2023/10/15 07:07:45;;;;;;;13.63;2.22;;;;;;;12.31;59.00;100950.56;5046347;27;98858;-78
2023/10/15 07:10:15;;;;;;;16.92;1.73;;;;;;;12.28;58.98;100963.91;5043232;27;98984;-78
2023/10/15 07:12:45;;;;;;;11.05;1.90;;;;;;;12.39;58.91;100968.81;5047025;27;96788;-78
2023/10/15 07:15:13;;;;;;;12.88;1.35;;;;;;;12.64;58.40;100963.38;5039128;27;98141;-78
2023/10/15 07:17:40;;;;;;;16.20;1.83;;;;;;;12.66;57.60;100969.50;5037025;27;97724;-78
2023/10/15 07:20:14;;;;;;;8.13;1.70;;;;;;;12.42;57.91;100967.78;5041772;27;100680;-78
2023/10/15 07:22:42;;;;;;;18.45;2.03;;;;;;;12.68;57.92;100962.31;5044021;27;97138;-78
2023/10/15 07:25:10;;;;;;;7.63;1.38;;;;;;;13.02;57.01;100970.63;5041766;27;98969;-78
2023/10/15 07:27:37;;;;;;;16.30;1.75;;;;;;;13.14;55.93;100969.25;5039469;27;99249;-78
2023/10/15 07:30:07;;;;;;;10.32;1.45;;;;;;;13.23;55.97;100968.00;5042553;27;97642;-78
2023/10/15 07:32:34;;;;;;;12.80;1.95;;;;;;;12.97;56.53;100972.59;5042695;27;97024;-79
2023/10/15 07:35:01;;;;;;;7.75;1.45;;;;;;;13.15;55.88;100976.28;5043581;27;97595;-79
2023/10/15 07:37:28;;;;;;;8.13;1.73;;;;;;;13.06;56.22;100972.19;5043648;27;99844;-78
2023/10/15 07:39:54;;;;;;;17.40;2.00;;;;;;;13.22;55.69;100976.91;5046029;27;99363;-77
2023/10/15 07:42:21;;;;;;;8.95;1.80;;;;;;;13.16;55.43;100978.91;5044048;27;97901;-77
2023/10/15 07:44:48;;;;;;;11.18;1.60;;;;;;;13.55;55.22;100980.75;5044495;27;96856;-78
2023/10/15 07:47:16;;;;;;;11.57;1.90;;;;;;;13.32;55.29;100989.72;5044888;27;97987;-78
2023/10/15 07:49:42;;;;;;;13.30;2.15;;;;;;;13.09;55.93;100982.69;5045885;27;98741;-78
2023/10/15 07:52:10;;;;;;;8.18;1.52;;;;;;;13.26;55.73;100989.13;5048750;27;97301;-78
2023/10/15 07:54:36;;;;;;;6.57;1.40;;;;;;;12.81;56.36;100987.41;5044661;27;97683;-79
2023/10/15 07:57:03;;;;;;;9.70;1.80;;;;;;;13.02;56.25;100991.84;5043300;27;101791;-79
2023/10/15 07:59:29;;;;;;;12.02;1.95;;;;;;;13.27;55.50;100993.47;5047638;27;98876;-78
2023/10/15 08:01:55;;;;;;;14.82;3.25;;;;;;;13.43;55.11;100999.88;5040248;27;98219;-77
2023/10/15 08:04:23;;;;;;;15.85;2.47;;;;;;;13.51;54.47;101003.94;5036980;27;97969;-77
2023/10/15 08:06:50;;;;;;;8.43;1.45;;;;;;;13.11;55.53;101002.06;5044367;27;99423;-76
2023/10/15 08:09:16;;;;;;;10.00;1.60;;;;;;;13.31;55.21;100995.97;5042245;27;99518;-79
2023/10/15 08:11:43;;;;;;;14.65;3.40;;;;;;;13.62;53.73;101002.59;5048230;27;97260;-78
2023/10/15 08:14:09;;;;;;;9.73;1.27;;;;;;;13.60;54.13;100999.13;5047800;27;97783;-79
2023/10/15 08:16:37;;;;;;;14.68;1.50;;;;;;;13.88;53.24;101003.16;5047216;27;98762;-78
2023/10/15 08:19:04;;;;;;;8.18;1.50;;;;;;;13.84;52.21;101012.19;5055958;27;100752;-79
2023/10/15 08:21:31;;;;;;;5.95;1.10;;;;;;;13.60;53.48;101020.38;5060192;27;96832;-79
2023/10/15 08:23:58;;;;;;;6.13;1.25;;;;;;;13.40;53.29;101013.25;5047959;27;97874;-78
2023/10/15 08:26:24;;;;;;;5.43;1.08;;;;;;;13.87;52.45;101004.06;5045407;27;99312;-78
2023/10/15 08:28:51;;;;;;;7.95;1.30;;;;;;;14.42;51.37;101017.53;5047382;27;99434;-78
2023/10/15 08:31:17;;;;;;;5.68;1.20;;;;;;;13.62;52.03;101008.75;5038672;27;97998;-77
2023/10/15 08:33:44;;;;;;;6.22;0.73;;;;;;;13.53;52.79;101030.38;5052237;27;97598;-78
2023/10/15 08:36:10;;;;;;;8.75;1.40;;;;;;;13.21;53.21;101009.66;5055283;27;99253;-79
2023/10/15 08:38:38;;;;;;;6.35;0.90;;;;;;;13.59;52.86;101016.84;5050191;27;98741;-78
2023/10/15 08:41:10;;;;;;;9.18;1.27;;;;;;;14.05;51.87;101012.13;5039809;27;97783;-78
2023/10/15 08:43:40;;;;;;;4.57;0.75;;;;;;;14.44;50.84;101020.13;5050905;27;98927;-78
2023/10/15 08:46:09;;;;;;;5.70;1.10;;;;;;;14.35;50.53;101021.38;5049422;27;99115;-79
2023/10/15 08:48:40;;;;;;;6.47;1.20;;;;;;;14.06;50.51;101020.03;5054519;27;99075;-78
2023/10/15 08:51:09;;;;;;;4.47;0.93;;;;;;;13.65;51.88;101029.00;5053086;27;97507;-78
2023/10/15 08:53:37;;;;;;;2.38;0.80;;;;;;;13.52;52.43;101023.38;5046034;27;97748;-78
2023/10/15 08:56:06;;;;;;;4.65;0.90;;;;;;;13.67;52.33;101030.66;5052579;27;99894;-78
2023/10/15 08:58:34;;;;;;;5.00;0.90;;;;;;;13.54;51.60;101024.16;5046511;27;99085;-77
2023/10/15 09:01:02;;;;;;;5.90;0.68;;;;;;;13.64;51.91;101025.50;5046568;27;97533;-77
2023/10/15 09:03:29;;;;;;;10.32;1.25;;;;;;;13.77;51.18;101023.16;5049302;27;97265;-78
2023/10/15 09:05:56;;;;;;;6.82;1.20;;;;;;;14.29;50.23;101042.94;5046978;27;99337;-79
2023/10/15 09:08:23;;;;;;;5.57;1.30;;;;;;;14.88;48.81;101037.47;5050321;27;99046;-77
2023/10/15 09:10:52;;;;;;;5.60;0.77;;;;;;;14.79;48.80;101031.72;5050489;27;98529;-77
2023/10/15 09:13:21;;;;;;;7.55;1.17;;;;;;;15.38;47.55;101045.59;5054744;27;96873;-77
2023/10/15 09:15:49;;;;;;;7.50;1.30;;;;;;;15.28;47.50;101040.81;5052046;27;99316;-78
2023/10/15 09:18:17;;;;;;;6.00;1.23;;;;;;;14.91;48.03;101042.63;5052835;27;98791;-76
2023/10/15 09:20:45;;;;;;;4.45;0.60;;;;;;;14.53;48.10;101043.59;5055919;27;96808;-77
2023/10/15 09:23:12;;;;;;;8.02;1.08;;;;;;;14.70;48.30;101049.84;5055898;27;96965;-77
2023/10/15 09:25:41;;;;;;;4.45;0.75;;;;;;;14.47;49.26;101047.41;5052139;27;100536;-77
2023/10/15 09:28:07;;;;;;;5.68;0.88;;;;;;;14.67;48.69;101052.66;5052759;27;98883;-78
2023/10/15 09:30:35;;;;;;;4.00;0.90;;;;;;;14.90;48.40;101053.38;5043772;27;97048;-78
2023/10/15 09:33:01;;;;;;;3.58;0.80;;;;;;;15.22;47.81;101047.31;5051696;27;97456;-78
2023/10/15 09:35:29;;;;;;;3.30;1.02;;;;;;;14.94;47.36;101061.13;5045952;27;102008;-78
2023/10/15 09:37:57;;;;;;;4.57;0.82;;;;;;;15.21;46.66;101063.38;5048756;27;98789;-78
2023/10/15 09:40:24;;;;;;;3.13;0.85;;;;;;;15.01;47.11;101059.03;5042508;27;98801;-76
2023/10/15 09:42:53;;;;;;;7.72;1.02;;;;;;;15.16;46.66;101060.94;5049759;27;96978;-77
2023/10/15 09:45:23;;;;;;;5.18;0.73;;;;;;;15.11;47.14;101070.94;5049479;27;98220;-77
2023/10/15 09:47:55;;;;;;;5.35;0.98;;;;;;;15.06;47.03;101075.63;5040736;27;99479;-77
2023/10/15 09:50:25;;;;;;;9.63;1.80;;;;;;;15.14;46.54;101073.44;5049210;27;97052;-77
2023/10/15 09:52:55;;;;;;;7.38;1.08;;;;;;;15.29;46.75;101075.38;5045508;27;96838;-77
2023/10/15 09:55:24;;;;;;;4.80;0.77;;;;;;;15.34;46.88;101078.66;5047811;27;97770;-77
2023/10/15 09:57:56;;;;;;;7.22;1.08;;;;;;;15.58;46.34;101081.03;5049188;27;101365;-78
2023/10/15 10:00:46;;;;;;;9.02;1.83;;;;;;;15.38;46.19;101085.53;5049756;27;97230;-78
2023/10/15 10:03:37;;;;;;;6.78;1.38;;;;;;;15.70;45.14;101096.41;5047482;27;96941;-78
2023/10/15 10:06:12;;;;;;;6.47;0.80;;;;;;;15.07;46.24;101095.97;5043990;27;99282;-78
2023/10/15 10:08:57;;;;;;;3.67;0.75;;;;;;;15.11;46.24;101098.41;5048106;27;101927;-79
2023/10/15 10:11:40;;;;;;;3.65;0.85;;;;;;;15.40;45.97;101093.47;5046882;27;97263;-78
2023/10/15 10:14:33;;;;;;;3.60;1.40;;;;;;;15.08;46.80;101097.72;5045382;27;97914;-78
2023/10/15 10:17:01;;;;;;;4.57;0.95;;;;;;;14.77;47.33;101088.50;5046312;27;99455;-77
2023/10/15 10:19:29;;;;;;;5.57;0.82;;;;;;;14.91;46.75;101094.97;5042284;27;97663;-77
2023/10/15 10:21:56;;;;;;;3.28;0.90;;;;;;;15.06;46.71;101092.44;5045912;27;98554;-77
2023/10/15 10:24:23;;;;;;;5.70;0.80;;;;;;;14.58;48.13;101097.44;5048097;27;99353;-77
2023/10/15 10:26:53;;;;;;;4.57;1.20;;;;;;;14.98;47.56;101086.63;5047817;27;99342;-78
2023/10/15 10:29:21;;;;;;;3.28;0.60;;;;;;;15.01;46.61;101088.28;5048846;27;98617;-72
2023/10/15 10:31:49;;;;;;;3.67;0.70;;;;;;;14.87;47.29;101085.44;5044685;27;97350;-78
2023/10/15 10:34:30;;;;;;;2.80;0.55;;;;;;;15.20;46.80;101086.47;5050079;27;97315;-78
2023/10/15 10:36:57;;;;;;;2.85;0.73;;;;;;;15.27;46.43;101087.88;5045333;27;99080;-77
2023/10/15 10:39:25;;;;;;;12.38;1.60;;;;;;;15.57;45.26;101084.63;5050429;27;101775;-78
2023/10/15 10:41:54;;;;;;;2.25;0.80;;;;;;;15.16;45.66;101079.56;5045750;27;96966;-78
2023/10/15 10:44:38;;;;;;;6.55;0.80;;;;;;;15.35;44.96;101079.53;5045283;27;98230;-78
2023/10/15 10:47:18;;;;;;;4.68;0.40;;;;;;;15.72;44.23;101083.88;5041432;27;97625;-77
2023/10/15 10:49:55;;;;;;;1.05;0.40;;;;;;;15.70;44.67;101080.41;5047442;27;97748;-77
2023/10/15 10:52:28;;;;;;;2.80;0.50;;;;;;;15.04;45.95;101089.00;5044438;27;97723;-79
2023/10/15 10:54:57;;;;;;;4.60;0.70;;;;;;;15.11;46.24;101089.56;5048537;27;96851;-79
2023/10/15 10:57:31;;;;;;;5.03;0.50;;;;;;;15.22;45.47;101075.75;5046746;27;99004;-79
2023/10/15 11:00:00;;;;;;;3.30;0.75;;;;;;;15.11;45.73;101085.09;5043886;27;98921;-78
2023/10/15 11:02:28;;;;;;;3.08;0.65;;;;;;;15.33;46.03;101078.72;5046598;27;97438;-78
2023/10/15 11:04:57;;;;;;;3.50;0.70;;;;;;;15.08;46.33;101087.06;5047082;27;96912;-78
2023/10/15 11:07:35;;;;;;;5.20;0.77;;;;;;;15.35;45.41;101071.53;5050642;27;98915;-79
2023/10/15 11:10:05;;;;;;;4.47;1.00;;;;;;;15.39;46.04;101073.09;5048904;27;98955;-78
2023/10/15 11:12:32;;;;;;;4.68;0.77;;;;;;;15.89;44.90;101075.84;5052663;27;97461;-77
2023/10/15 11:14:59;;;;;;;5.65;0.50;;;;;;;15.93;44.20;101067.63;5052546;27;96921;-78
2023/10/15 11:17:25;;;;;;;2.80;0.52;;;;;;;15.84;43.83;101072.56;5049234;27;100159;-78
2023/10/15 11:19:52;;;;;;;2.17;0.55;;;;;;;15.90;43.71;101062.44;5044201;27;100517;-79
2023/10/15 11:22:19;;;;;;;2.35;0.57;;;;;;;15.83;43.40;101063.72;5051545;27;96729;-78
2023/10/15 11:24:46;;;;;;;4.78;0.82;;;;;;;15.73;44.18;101072.28;5046539;27;101386;-79
2023/10/15 11:27:12;;;;;;;2.13;0.98;;;;;;;15.95;43.81;101070.19;5046486;27;99173;-78
2023/10/15 11:29:39;;;;;;;7.20;0.60;;;;;;;15.77;43.57;101077.34;5050297;27;101677;-78
2023/10/15 11:32:08;;;;;;;5.03;1.35;;;;;;;15.86;43.31;101073.38;5049015;27;96950;-79